sensor_id;sensor_type;location;lat;lon;timestamp;P1;durP1;ratioP1;P2;durP2;ratioP2
13085;SDS011;6609;49.882;8.664;2024-01-06T00:02:00;4.73;;;2.53;;
13085;SDS011;6609;49.882;8.664;2024-01-06T00:04:29;8.53;;;2.77;;
13085;SDS011;6609;49.882;8.664;2024-01-06T00:06:57;5.80;;;3.10;;
13085;SDS011;6609;49.882;8.664;2024-01-06T00:09:24;3.33;;;2.20;;
13085;SDS011;6609;49.882;8.664;2024-01-06T00:11:51;6.87;;;2.50;;
13085;SDS011;6609;49.882;8.664;2024-01-06T00:14:18;6.87;;;2.60;;
13085;SDS011;6609;49.882;8.664;2024-01-06T00:16:45;3.33;;;2.37;;
13085;SDS011;6609;49.882;8.664;2024-01-06T00:19:12;4.50;;;2.10;;
13085;SDS011;6609;49.882;8.664;2024-01-06T00:21:41;6.37;;;2.57;;
13085;SDS011;6609;49.882;8.664;2024-01-06T00:24:08;6.07;;;2.60;;
13085;SDS011;6609;49.882;8.664;2024-01-06T00:26:35;6.50;;;2.17;;
13085;SDS011;6609;49.882;8.664;2024-01-06T00:29:02;4.97;;;2.97;;
13085;SDS011;6609;49.882;8.664;2024-01-06T00:31:29;5.40;;;2.27;;
13085;SDS011;6609;49.882;8.664;2024-01-06T00:33:56;3.57;;;2.53;;
13085;SDS011;6609;49.882;8.664;2024-01-06T00:36:23;7.50;;;2.50;;
13085;SDS011;6609;49.882;8.664;2024-01-06T00:38:51;5.50;;;2.37;;
13085;SDS011;6609;49.882;8.664;2024-01-06T00:41:18;8.10;;;2.70;;
13085;SDS011;6609;49.882;8.664;2024-01-06T00:43:45;4.13;;;1.83;;
13085;SDS011;6609;49.882;8.664;2024-01-06T00:46:12;5.60;;;2.17;;
13085;SDS011;6609;49.882;8.664;2024-01-06T00:48:39;5.90;;;2.07;;
13085;SDS011;6609;49.882;8.664;2024-01-06T00:51:06;10.53;;;2.67;;
13085;SDS011;6609;49.882;8.664;2024-01-06T00:53:33;7.53;;;2.30;;
13085;SDS011;6609;49.882;8.664;2024-01-06T00:56:02;8.20;;;2.87;;
13085;SDS011;6609;49.882;8.664;2024-01-06T00:58:29;5.83;;;2.50;;
13085;SDS011;6609;49.882;8.664;2024-01-06T01:00:56;5.03;;;2.17;;
13085;SDS011;6609;49.882;8.664;2024-01-06T01:03:23;6.67;;;3.07;;
13085;SDS011;6609;49.882;8.664;2024-01-06T01:05:52;7.30;;;2.83;;
13085;SDS011;6609;49.882;8.664;2024-01-06T01:08:19;5.93;;;2.80;;
13085;SDS011;6609;49.882;8.664;2024-01-06T01:10:46;5.20;;;2.57;;
13085;SDS011;6609;49.882;8.664;2024-01-06T01:13:14;9.23;;;2.27;;
13085;SDS011;6609;49.882;8.664;2024-01-06T01:15:41;7.43;;;2.70;;
13085;SDS011;6609;49.882;8.664;2024-01-06T01:18:07;5.27;;;2.53;;
13085;SDS011;6609;49.882;8.664;2024-01-06T01:20:34;6.03;;;2.60;;
13085;SDS011;6609;49.882;8.664;2024-01-06T01:23:01;4.77;;;2.27;;
13085;SDS011;6609;49.882;8.664;2024-01-06T01:25:28;5.73;;;2.50;;
13085;SDS011;6609;49.882;8.664;2024-01-06T01:27:55;9.07;;;3.00;;
13085;SDS011;6609;49.882;8.664;2024-01-06T01:30:24;10.00;;;2.97;;
13085;SDS011;6609;49.882;8.664;2024-01-06T01:32:51;5.77;;;2.27;;
13085;SDS011;6609;49.882;8.664;2024-01-06T01:35:18;5.97;;;2.77;;
13085;SDS011;6609;49.882;8.664;2024-01-06T01:37:45;5.07;;;2.23;;
13085;SDS011;6609;49.882;8.664;2024-01-06T01:40:12;6.37;;;2.00;;
13085;SDS011;6609;49.882;8.664;2024-01-06T01:42:40;7.80;;;2.43;;
13085;SDS011;6609;49.882;8.664;2024-01-06T01:45:07;4.30;;;2.33;;
13085;SDS011;6609;49.882;8.664;2024-01-06T01:47:36;5.60;;;2.30;;
13085;SDS011;6609;49.882;8.664;2024-01-06T01:50:04;6.53;;;3.03;;
13085;SDS011;6609;49.882;8.664;2024-01-06T01:52:32;4.47;;;2.70;;
13085;SDS011;6609;49.882;8.664;2024-01-06T01:54:59;9.53;;;3.07;;
13085;SDS011;6609;49.882;8.664;2024-01-06T01:57:26;7.83;;;2.57;;
13085;SDS011;6609;49.882;8.664;2024-01-06T01:59:54;4.37;;;2.93;;
13085;SDS011;6609;49.882;8.664;2024-01-06T02:02:21;3.73;;;2.43;;
13085;SDS011;6609;49.882;8.664;2024-01-06T02:04:50;6.60;;;2.60;;
13085;SDS011;6609;49.882;8.664;2024-01-06T02:07:17;3.93;;;2.23;;
13085;SDS011;6609;49.882;8.664;2024-01-06T02:09:44;5.67;;;2.03;;
13085;SDS011;6609;49.882;8.664;2024-01-06T02:12:11;6.50;;;2.10;;
13085;SDS011;6609;49.882;8.664;2024-01-06T02:14:38;6.67;;;2.60;;
13085;SDS011;6609;49.882;8.664;2024-01-06T02:17:06;5.70;;;2.60;;
13085;SDS011;6609;49.882;8.664;2024-01-06T02:19:33;6.03;;;2.20;;
13085;SDS011;6609;49.882;8.664;2024-01-06T02:22:02;6.33;;;2.80;;
13085;SDS011;6609;49.882;8.664;2024-01-06T02:24:29;7.77;;;2.50;;
13085;SDS011;6609;49.882;8.664;2024-01-06T02:26:56;3.43;;;2.10;;
13085;SDS011;6609;49.882;8.664;2024-01-06T02:29:23;5.03;;;2.20;;
13085;SDS011;6609;49.882;8.664;2024-01-06T02:31:49;4.17;;;2.17;;
13085;SDS011;6609;49.882;8.664;2024-01-06T02:34:16;4.13;;;2.30;;
13085;SDS011;6609;49.882;8.664;2024-01-06T02:36:43;6.10;;;2.53;;
13085;SDS011;6609;49.882;8.664;2024-01-06T02:39:12;4.10;;;1.87;;
13085;SDS011;6609;49.882;8.664;2024-01-06T02:41:39;5.50;;;2.47;;
13085;SDS011;6609;49.882;8.664;2024-01-06T02:44:05;4.67;;;2.40;;
13085;SDS011;6609;49.882;8.664;2024-01-06T02:46:33;6.73;;;3.07;;
13085;SDS011;6609;49.882;8.664;2024-01-06T02:49:00;6.00;;;2.37;;
13085;SDS011;6609;49.882;8.664;2024-01-06T02:51:27;3.23;;;2.30;;
13085;SDS011;6609;49.882;8.664;2024-01-06T02:53:54;7.20;;;2.60;;
13085;SDS011;6609;49.882;8.664;2024-01-06T02:56:22;4.20;;;2.53;;
13085;SDS011;6609;49.882;8.664;2024-01-06T02:58:49;3.80;;;2.23;;
13085;SDS011;6609;49.882;8.664;2024-01-06T03:01:17;4.07;;;2.37;;
13085;SDS011;6609;49.882;8.664;2024-01-06T03:03:44;4.77;;;2.17;;
13085;SDS011;6609;49.882;8.664;2024-01-06T03:06:11;3.47;;;2.33;;
13085;SDS011;6609;49.882;8.664;2024-01-06T03:08:38;5.27;;;2.53;;
13085;SDS011;6609;49.882;8.664;2024-01-06T03:11:05;6.63;;;2.80;;
13085;SDS011;6609;49.882;8.664;2024-01-06T03:13:33;5.17;;;2.70;;
13085;SDS011;6609;49.882;8.664;2024-01-06T03:16:02;7.57;;;3.03;;
13085;SDS011;6609;49.882;8.664;2024-01-06T03:18:30;5.33;;;2.63;;
13085;SDS011;6609;49.882;8.664;2024-01-06T03:20:57;5.83;;;2.93;;
13085;SDS011;6609;49.882;8.664;2024-01-06T03:23:24;5.43;;;2.10;;
13085;SDS011;6609;49.882;8.664;2024-01-06T03:25:51;3.20;;;1.80;;
13085;SDS011;6609;49.882;8.664;2024-01-06T03:28:18;4.70;;;2.37;;
13085;SDS011;6609;49.882;8.664;2024-01-06T03:30:47;4.60;;;2.43;;
13085;SDS011;6609;49.882;8.664;2024-01-06T03:33:14;3.53;;;1.60;;
13085;SDS011;6609;49.882;8.664;2024-01-06T03:35:41;4.47;;;2.27;;
13085;SDS011;6609;49.882;8.664;2024-01-06T03:38:08;4.27;;;2.40;;
13085;SDS011;6609;49.882;8.664;2024-01-06T03:40:34;5.47;;;2.47;;
13085;SDS011;6609;49.882;8.664;2024-01-06T03:43:01;3.40;;;2.20;;
13085;SDS011;6609;49.882;8.664;2024-01-06T03:45:28;3.53;;;1.90;;
13085;SDS011;6609;49.882;8.664;2024-01-06T03:47:57;2.90;;;2.20;;
13085;SDS011;6609;49.882;8.664;2024-01-06T03:50:25;5.50;;;2.50;;
13085;SDS011;6609;49.882;8.664;2024-01-06T03:52:52;3.37;;;2.20;;
13085;SDS011;6609;49.882;8.664;2024-01-06T03:55:19;4.93;;;1.87;;
13085;SDS011;6609;49.882;8.664;2024-01-06T03:57:46;5.07;;;2.40;;
13085;SDS011;6609;49.882;8.664;2024-01-06T04:00:13;3.53;;;1.90;;
13085;SDS011;6609;49.882;8.664;2024-01-06T04:02:40;5.43;;;2.53;;
13085;SDS011;6609;49.882;8.664;2024-01-06T04:05:08;5.70;;;2.90;;
13085;SDS011;6609;49.882;8.664;2024-01-06T04:07:35;6.13;;;2.40;;
13085;SDS011;6609;49.882;8.664;2024-01-06T04:10:02;5.30;;;2.67;;
13085;SDS011;6609;49.882;8.664;2024-01-06T04:12:30;4.13;;;2.30;;
13085;SDS011;6609;49.882;8.664;2024-01-06T04:14:56;4.27;;;2.27;;
13085;SDS011;6609;49.882;8.664;2024-01-06T04:17:23;5.13;;;2.77;;
13085;SDS011;6609;49.882;8.664;2024-01-06T04:19:51;4.27;;;2.57;;
13085;SDS011;6609;49.882;8.664;2024-01-06T04:22:20;5.43;;;2.97;;
13085;SDS011;6609;49.882;8.664;2024-01-06T04:24:47;6.57;;;2.70;;
13085;SDS011;6609;49.882;8.664;2024-01-06T04:27:14;7.13;;;2.23;;
13085;SDS011;6609;49.882;8.664;2024-01-06T04:29:41;7.57;;;2.37;;
13085;SDS011;6609;49.882;8.664;2024-01-06T04:32:08;5.90;;;2.70;;
13085;SDS011;6609;49.882;8.664;2024-01-06T04:34:35;3.77;;;2.50;;
13085;SDS011;6609;49.882;8.664;2024-01-06T04:37:02;10.13;;;2.67;;
13085;SDS011;6609;49.882;8.664;2024-01-06T04:39:30;5.63;;;2.83;;
13085;SDS011;6609;49.882;8.664;2024-01-06T04:41:57;5.47;;;2.87;;
13085;SDS011;6609;49.882;8.664;2024-01-06T04:44:24;6.40;;;2.43;;
13085;SDS011;6609;49.882;8.664;2024-01-06T04:46:51;5.23;;;2.67;;
13085;SDS011;6609;49.882;8.664;2024-01-06T04:49:18;6.27;;;2.70;;
13085;SDS011;6609;49.882;8.664;2024-01-06T04:51:45;5.20;;;2.40;;
13085;SDS011;6609;49.882;8.664;2024-01-06T04:54:13;4.27;;;2.33;;
13085;SDS011;6609;49.882;8.664;2024-01-06T04:56:42;6.93;;;2.57;;
13085;SDS011;6609;49.882;8.664;2024-01-06T04:59:09;6.13;;;2.60;;
13085;SDS011;6609;49.882;8.664;2024-01-06T05:01:36;3.97;;;2.57;;
13085;SDS011;6609;49.882;8.664;2024-01-06T05:04:02;2.60;;;2.00;;
13085;SDS011;6609;49.882;8.664;2024-01-06T05:06:30;4.27;;;2.57;;
13085;SDS011;6609;49.882;8.664;2024-01-06T05:08:57;6.20;;;2.83;;
13085;SDS011;6609;49.882;8.664;2024-01-06T05:11:24;5.77;;;2.70;;
13085;SDS011;6609;49.882;8.664;2024-01-06T05:13:52;3.90;;;2.27;;
13085;SDS011;6609;49.882;8.664;2024-01-06T05:16:19;4.30;;;2.30;;
13085;SDS011;6609;49.882;8.664;2024-01-06T05:18:46;3.40;;;2.10;;
13085;SDS011;6609;49.882;8.664;2024-01-06T05:21:13;5.47;;;2.30;;
13085;SDS011;6609;49.882;8.664;2024-01-06T05:23:40;6.37;;;2.40;;
13085;SDS011;6609;49.882;8.664;2024-01-06T05:26:08;6.07;;;2.30;;
13085;SDS011;6609;49.882;8.664;2024-01-06T05:28:35;10.87;;;3.17;;
13085;SDS011;6609;49.882;8.664;2024-01-06T05:31:03;9.53;;;3.60;;
13085;SDS011;6609;49.882;8.664;2024-01-06T05:33:30;4.97;;;2.60;;
13085;SDS011;6609;49.882;8.664;2024-01-06T05:35:57;5.13;;;2.43;;
13085;SDS011;6609;49.882;8.664;2024-01-06T05:38:24;5.93;;;2.83;;
13085;SDS011;6609;49.882;8.664;2024-01-06T05:40:51;7.70;;;2.53;;
13085;SDS011;6609;49.882;8.664;2024-01-06T05:43:18;10.20;;;2.63;;
13085;SDS011;6609;49.882;8.664;2024-01-06T05:45:45;4.37;;;2.90;;
13085;SDS011;6609;49.882;8.664;2024-01-06T05:48:13;8.67;;;3.23;;
13085;SDS011;6609;49.882;8.664;2024-01-06T05:50:40;8.90;;;2.10;;
13085;SDS011;6609;49.882;8.664;2024-01-06T05:53:07;7.33;;;2.93;;
13085;SDS011;6609;49.882;8.664;2024-01-06T05:55:35;5.93;;;3.20;;
13085;SDS011;6609;49.882;8.664;2024-01-06T05:58:02;2.93;;;2.33;;
13085;SDS011;6609;49.882;8.664;2024-01-06T06:00:29;4.37;;;2.50;;
13085;SDS011;6609;49.882;8.664;2024-01-06T06:02:56;8.07;;;2.60;;
13085;SDS011;6609;49.882;8.664;2024-01-06T06:05:25;3.60;;;2.60;;
13085;SDS011;6609;49.882;8.664;2024-01-06T06:07:51;4.93;;;2.50;;
13085;SDS011;6609;49.882;8.664;2024-01-06T06:10:19;4.47;;;2.40;;
13085;SDS011;6609;49.882;8.664;2024-01-06T06:12:47;3.33;;;2.50;;
13085;SDS011;6609;49.882;8.664;2024-01-06T06:15:13;5.17;;;2.70;;
13085;SDS011;6609;49.882;8.664;2024-01-06T06:17:40;8.20;;;2.67;;
13085;SDS011;6609;49.882;8.664;2024-01-06T06:20:07;6.43;;;2.63;;
13085;SDS011;6609;49.882;8.664;2024-01-06T06:22:36;4.17;;;2.17;;
13085;SDS011;6609;49.882;8.664;2024-01-06T06:25:03;3.77;;;2.50;;
13085;SDS011;6609;49.882;8.664;2024-01-06T06:27:30;6.90;;;2.70;;
13085;SDS011;6609;49.882;8.664;2024-01-06T06:29:57;5.07;;;2.40;;
13085;SDS011;6609;49.882;8.664;2024-01-06T06:32:24;5.57;;;3.00;;
13085;SDS011;6609;49.882;8.664;2024-01-06T06:34:51;5.23;;;3.00;;
13085;SDS011;6609;49.882;8.664;2024-01-06T06:37:18;3.67;;;2.83;;
13085;SDS011;6609;49.882;8.664;2024-01-06T06:39:47;5.87;;;2.60;;
13085;SDS011;6609;49.882;8.664;2024-01-06T06:42:14;2.33;;;1.97;;
13085;SDS011;6609;49.882;8.664;2024-01-06T06:44:40;4.87;;;2.60;;
13085;SDS011;6609;49.882;8.664;2024-01-06T06:47:07;5.33;;;2.43;;
13085;SDS011;6609;49.882;8.664;2024-01-06T06:49:34;4.93;;;3.30;;
13085;SDS011;6609;49.882;8.664;2024-01-06T06:52:01;5.13;;;2.60;;
13085;SDS011;6609;49.882;8.664;2024-01-06T06:54:29;7.43;;;2.83;;
13085;SDS011;6609;49.882;8.664;2024-01-06T06:56:57;8.87;;;3.30;;
13085;SDS011;6609;49.882;8.664;2024-01-06T06:59:24;4.97;;;2.30;;
13085;SDS011;6609;49.882;8.664;2024-01-06T07:01:51;5.60;;;3.17;;
13085;SDS011;6609;49.882;8.664;2024-01-06T07:04:18;7.83;;;3.07;;
13085;SDS011;6609;49.882;8.664;2024-01-06T07:06:45;4.60;;;2.63;;
13085;SDS011;6609;49.882;8.664;2024-01-06T07:09:12;8.77;;;3.00;;
13085;SDS011;6609;49.882;8.664;2024-01-06T07:11:39;4.27;;;2.90;;
13085;SDS011;6609;49.882;8.664;2024-01-06T07:14:07;7.53;;;2.90;;
13085;SDS011;6609;49.882;8.664;2024-01-06T07:16:33;6.07;;;3.17;;
13085;SDS011;6609;49.882;8.664;2024-01-06T07:19:00;4.87;;;3.10;;
13085;SDS011;6609;49.882;8.664;2024-01-06T07:21:27;5.13;;;2.50;;
13085;SDS011;6609;49.882;8.664;2024-01-06T07:23:55;6.57;;;3.10;;
13085;SDS011;6609;49.882;8.664;2024-01-06T07:26:22;5.37;;;3.00;;
13085;SDS011;6609;49.882;8.664;2024-01-06T07:28:49;5.90;;;3.53;;
13085;SDS011;6609;49.882;8.664;2024-01-06T07:31:17;5.53;;;3.50;;
13085;SDS011;6609;49.882;8.664;2024-01-06T07:33:44;4.60;;;3.20;;
13085;SDS011;6609;49.882;8.664;2024-01-06T07:36:11;6.93;;;3.17;;
13085;SDS011;6609;49.882;8.664;2024-01-06T07:38:38;5.60;;;3.67;;
13085;SDS011;6609;49.882;8.664;2024-01-06T07:41:06;7.73;;;3.30;;
13085;SDS011;6609;49.882;8.664;2024-01-06T07:43:33;4.53;;;3.10;;
13085;SDS011;6609;49.882;8.664;2024-01-06T07:46:01;5.93;;;3.50;;
13085;SDS011;6609;49.882;8.664;2024-01-06T07:48:30;6.27;;;3.90;;
13085;SDS011;6609;49.882;8.664;2024-01-06T07:50:56;4.33;;;3.50;;
13085;SDS011;6609;49.882;8.664;2024-01-06T07:53:23;11.07;;;3.97;;
13085;SDS011;6609;49.882;8.664;2024-01-06T07:55:50;7.00;;;3.90;;
13085;SDS011;6609;49.882;8.664;2024-01-06T07:58:17;4.57;;;3.50;;
13085;SDS011;6609;49.882;8.664;2024-01-06T08:00:45;6.20;;;3.43;;
13085;SDS011;6609;49.882;8.664;2024-01-06T08:03:12;6.57;;;4.17;;
13085;SDS011;6609;49.882;8.664;2024-01-06T08:05:42;8.47;;;3.87;;
13085;SDS011;6609;49.882;8.664;2024-01-06T08:08:09;8.03;;;4.30;;
13085;SDS011;6609;49.882;8.664;2024-01-06T08:10:38;5.67;;;4.17;;
13085;SDS011;6609;49.882;8.664;2024-01-06T08:13:05;6.40;;;3.90;;
13085;SDS011;6609;49.882;8.664;2024-01-06T08:15:32;7.77;;;5.70;;
13085;SDS011;6609;49.882;8.664;2024-01-06T08:17:59;10.83;;;3.93;;
13085;SDS011;6609;49.882;8.664;2024-01-06T08:20:27;7.70;;;4.10;;
13085;SDS011;6609;49.882;8.664;2024-01-06T08:22:55;5.63;;;3.70;;
13085;SDS011;6609;49.882;8.664;2024-01-06T08:25:22;4.93;;;3.43;;
13085;SDS011;6609;49.882;8.664;2024-01-06T08:27:49;5.90;;;3.60;;
13085;SDS011;6609;49.882;8.664;2024-01-06T08:30:16;6.37;;;3.90;;
13085;SDS011;6609;49.882;8.664;2024-01-06T08:32:43;9.63;;;4.23;;
13085;SDS011;6609;49.882;8.664;2024-01-06T08:35:10;7.10;;;4.20;;
13085;SDS011;6609;49.882;8.664;2024-01-06T08:37:37;5.60;;;3.80;;
13085;SDS011;6609;49.882;8.664;2024-01-06T08:40:06;6.83;;;3.37;;
13085;SDS011;6609;49.882;8.664;2024-01-06T08:42:35;6.77;;;3.40;;
13085;SDS011;6609;49.882;8.664;2024-01-06T08:45:01;6.63;;;4.10;;
13085;SDS011;6609;49.882;8.664;2024-01-06T08:47:29;5.23;;;3.73;;
13085;SDS011;6609;49.882;8.664;2024-01-06T08:49:56;8.10;;;4.00;;
13085;SDS011;6609;49.882;8.664;2024-01-06T08:52:23;6.90;;;4.33;;
13085;SDS011;6609;49.882;8.664;2024-01-06T08:54:50;6.93;;;4.27;;
13085;SDS011;6609;49.882;8.664;2024-01-06T08:57:18;6.63;;;3.77;;
13085;SDS011;6609;49.882;8.664;2024-01-06T08:59:45;11.73;;;5.00;;
13085;SDS011;6609;49.882;8.664;2024-01-06T09:02:12;8.43;;;4.80;;
13085;SDS011;6609;49.882;8.664;2024-01-06T09:04:39;9.27;;;3.87;;
13085;SDS011;6609;49.882;8.664;2024-01-06T09:07:06;7.50;;;4.60;;
13085;SDS011;6609;49.882;8.664;2024-01-06T09:09:33;10.03;;;4.13;;
13085;SDS011;6609;49.882;8.664;2024-01-06T09:12:00;11.47;;;5.10;;
13085;SDS011;6609;49.882;8.664;2024-01-06T09:14:28;9.20;;;4.50;;
13085;SDS011;6609;49.882;8.664;2024-01-06T09:16:55;6.53;;;4.63;;
13085;SDS011;6609;49.882;8.664;2024-01-06T09:19:22;10.30;;;4.73;;
13085;SDS011;6609;49.882;8.664;2024-01-06T09:21:49;11.47;;;4.33;;
13085;SDS011;6609;49.882;8.664;2024-01-06T09:24:16;9.37;;;4.53;;
13085;SDS011;6609;49.882;8.664;2024-01-06T09:26:43;9.03;;;4.63;;
13085;SDS011;6609;49.882;8.664;2024-01-06T09:29:11;8.07;;;4.90;;
13085;SDS011;6609;49.882;8.664;2024-01-06T09:31:39;7.50;;;4.87;;
13085;SDS011;6609;49.882;8.664;2024-01-06T09:34:08;8.00;;;4.80;;
13085;SDS011;6609;49.882;8.664;2024-01-06T09:36:35;6.77;;;5.13;;
13085;SDS011;6609;49.882;8.664;2024-01-06T09:39:02;10.40;;;5.07;;
13085;SDS011;6609;49.882;8.664;2024-01-06T09:41:30;9.50;;;4.63;;
13085;SDS011;6609;49.882;8.664;2024-01-06T09:43:58;9.17;;;5.23;;
13085;SDS011;6609;49.882;8.664;2024-01-06T09:46:25;7.43;;;5.03;;
13085;SDS011;6609;49.882;8.664;2024-01-06T09:48:54;10.40;;;5.03;;
13085;SDS011;6609;49.882;8.664;2024-01-06T09:51:22;8.93;;;5.73;;
13085;SDS011;6609;49.882;8.664;2024-01-06T09:53:51;7.40;;;5.53;;
13085;SDS011;6609;49.882;8.664;2024-01-06T09:56:23;8.03;;;4.73;;
13085;SDS011;6609;49.882;8.664;2024-01-06T09:58:51;8.33;;;4.93;;
13085;SDS011;6609;49.882;8.664;2024-01-06T10:01:18;9.00;;;5.00;;
13085;SDS011;6609;49.882;8.664;2024-01-06T10:03:45;9.63;;;4.93;;
13085;SDS011;6609;49.882;8.664;2024-01-06T10:06:14;7.40;;;4.93;;
13085;SDS011;6609;49.882;8.664;2024-01-06T10:08:42;7.87;;;4.80;;
13085;SDS011;6609;49.882;8.664;2024-01-06T10:11:09;7.43;;;5.07;;
13085;SDS011;6609;49.882;8.664;2024-01-06T10:13:36;10.80;;;5.53;;
13085;SDS011;6609;49.882;8.664;2024-01-06T10:16:03;6.60;;;4.70;;
13085;SDS011;6609;49.882;8.664;2024-01-06T10:18:30;7.13;;;5.40;;
13085;SDS011;6609;49.882;8.664;2024-01-06T10:20:58;9.17;;;6.43;;
13085;SDS011;6609;49.882;8.664;2024-01-06T10:23:27;8.13;;;5.67;;
13085;SDS011;6609;49.882;8.664;2024-01-06T10:25:54;10.83;;;5.87;;
13085;SDS011;6609;49.882;8.664;2024-01-06T10:28:22;6.87;;;5.03;;
13085;SDS011;6609;49.882;8.664;2024-01-06T10:30:49;6.50;;;5.20;;
13085;SDS011;6609;49.882;8.664;2024-01-06T10:33:18;10.27;;;5.87;;
13085;SDS011;6609;49.882;8.664;2024-01-06T10:35:45;8.20;;;5.70;;
13085;SDS011;6609;49.882;8.664;2024-01-06T10:38:13;8.93;;;5.07;;
13085;SDS011;6609;49.882;8.664;2024-01-06T10:40:46;10.53;;;5.50;;
13085;SDS011;6609;49.882;8.664;2024-01-06T10:43:22;9.30;;;5.37;;
13085;SDS011;6609;49.882;8.664;2024-01-06T10:45:50;11.07;;;5.33;;
13085;SDS011;6609;49.882;8.664;2024-01-06T10:48:19;8.13;;;5.27;;
13085;SDS011;6609;49.882;8.664;2024-01-06T10:50:46;10.03;;;5.10;;
13085;SDS011;6609;49.882;8.664;2024-01-06T10:53:13;10.10;;;5.20;;
13085;SDS011;6609;49.882;8.664;2024-01-06T10:55:41;7.37;;;4.90;;
13085;SDS011;6609;49.882;8.664;2024-01-06T10:58:10;7.73;;;4.93;;
13085;SDS011;6609;49.882;8.664;2024-01-06T11:00:41;10.13;;;5.20;;
13085;SDS011;6609;49.882;8.664;2024-01-06T11:03:08;7.07;;;4.93;;
13085;SDS011;6609;49.882;8.664;2024-01-06T11:05:36;7.10;;;5.13;;
13085;SDS011;6609;49.882;8.664;2024-01-06T11:08:04;9.57;;;6.30;;
13085;SDS011;6609;49.882;8.664;2024-01-06T11:10:31;9.97;;;6.53;;
13085;SDS011;6609;49.882;8.664;2024-01-06T11:13:09;8.90;;;5.13;;
13085;SDS011;6609;49.882;8.664;2024-01-06T11:15:41;9.50;;;5.37;;
13085;SDS011;6609;49.882;8.664;2024-01-06T11:18:08;8.50;;;6.07;;
13085;SDS011;6609;49.882;8.664;2024-01-06T11:20:36;12.13;;;7.83;;
13085;SDS011;6609;49.882;8.664;2024-01-06T11:23:17;9.37;;;5.60;;
13085;SDS011;6609;49.882;8.664;2024-01-06T11:25:44;10.60;;;5.63;;
13085;SDS011;6609;49.882;8.664;2024-01-06T11:28:13;6.80;;;5.27;;
13085;SDS011;6609;49.882;8.664;2024-01-06T11:30:40;12.27;;;5.67;;
13085;SDS011;6609;49.882;8.664;2024-01-06T11:33:08;9.47;;;5.90;;
13085;SDS011;6609;49.882;8.664;2024-01-06T11:35:36;10.57;;;5.73;;
13085;SDS011;6609;49.882;8.664;2024-01-06T11:38:06;7.27;;;5.63;;
13085;SDS011;6609;49.882;8.664;2024-01-06T11:40:34;9.60;;;5.30;;
13085;SDS011;6609;49.882;8.664;2024-01-06T11:43:02;8.37;;;5.53;;
13085;SDS011;6609;49.882;8.664;2024-01-06T11:45:33;7.90;;;5.63;;
13085;SDS011;6609;49.882;8.664;2024-01-06T11:48:00;5.87;;;4.83;;
13085;SDS011;6609;49.882;8.664;2024-01-06T11:50:28;6.27;;;5.13;;
13085;SDS011;6609;49.882;8.664;2024-01-06T11:52:56;6.03;;;4.73;;
13085;SDS011;6609;49.882;8.664;2024-01-06T11:55:24;8.73;;;5.60;;
13085;SDS011;6609;49.882;8.664;2024-01-06T11:57:53;8.30;;;5.00;;
13085;SDS011;6609;49.882;8.664;2024-01-06T12:00:22;8.50;;;5.07;;
13085;SDS011;6609;49.882;8.664;2024-01-06T12:02:51;9.57;;;5.83;;
13085;SDS011;6609;49.882;8.664;2024-01-06T12:05:22;12.67;;;5.07;;
13085;SDS011;6609;49.882;8.664;2024-01-06T12:07:53;9.53;;;5.17;;
13085;SDS011;6609;49.882;8.664;2024-01-06T12:10:21;7.73;;;5.13;;
13085;SDS011;6609;49.882;8.664;2024-01-06T12:12:55;6.87;;;5.23;;
13085;SDS011;6609;49.882;8.664;2024-01-06T12:15:23;8.80;;;4.60;;
13085;SDS011;6609;49.882;8.664;2024-01-06T12:17:52;8.67;;;5.00;;
13085;SDS011;6609;49.882;8.664;2024-01-06T12:20:18;10.47;;;4.90;;
13085;SDS011;6609;49.882;8.664;2024-01-06T12:22:45;7.83;;;4.80;;
13085;SDS011;6609;49.882;8.664;2024-01-06T12:25:14;7.97;;;4.90;;
13085;SDS011;6609;49.882;8.664;2024-01-06T12:27:42;7.53;;;4.97;;
13085;SDS011;6609;49.882;8.664;2024-01-06T12:30:11;8.27;;;5.00;;
13085;SDS011;6609;49.882;8.664;2024-01-06T12:32:40;10.70;;;4.10;;
13085;SDS011;6609;49.882;8.664;2024-01-06T12:35:10;9.57;;;5.27;;
13085;SDS011;6609;49.882;8.664;2024-01-06T12:37:37;6.43;;;4.70;;
13085;SDS011;6609;49.882;8.664;2024-01-06T12:40:08;9.17;;;4.10;;
13085;SDS011;6609;49.882;8.664;2024-01-06T12:42:35;6.27;;;4.63;;
13085;SDS011;6609;49.882;8.664;2024-01-06T12:45:03;8.77;;;5.43;;
13085;SDS011;6609;49.882;8.664;2024-01-06T12:47:30;7.53;;;4.33;;
13085;SDS011;6609;49.882;8.664;2024-01-06T12:49:57;10.17;;;5.43;;
13085;SDS011;6609;49.882;8.664;2024-01-06T12:52:26;7.27;;;5.00;;
13085;SDS011;6609;49.882;8.664;2024-01-06T12:54:52;6.80;;;4.47;;
13085;SDS011;6609;49.882;8.664;2024-01-06T12:57:19;7.03;;;5.30;;
13085;SDS011;6609;49.882;8.664;2024-01-06T12:59:47;8.97;;;5.63;;
13085;SDS011;6609;49.882;8.664;2024-01-06T13:02:14;6.97;;;4.80;;
13085;SDS011;6609;49.882;8.664;2024-01-06T13:04:41;7.93;;;5.03;;
13085;SDS011;6609;49.882;8.664;2024-01-06T13:07:08;8.57;;;5.37;;
13085;SDS011;6609;49.882;8.664;2024-01-06T13:09:36;12.20;;;6.50;;
13085;SDS011;6609;49.882;8.664;2024-01-06T13:12:03;7.00;;;5.20;;
13085;SDS011;6609;49.882;8.664;2024-01-06T13:14:30;10.97;;;5.53;;
13085;SDS011;6609;49.882;8.664;2024-01-06T13:16:57;10.43;;;5.40;;
13085;SDS011;6609;49.882;8.664;2024-01-06T13:19:25;8.23;;;5.50;;
13085;SDS011;6609;49.882;8.664;2024-01-06T13:21:52;10.13;;;5.27;;
13085;SDS011;6609;49.882;8.664;2024-01-06T13:24:19;9.73;;;5.53;;
13085;SDS011;6609;49.882;8.664;2024-01-06T13:26:47;8.53;;;5.43;;
13085;SDS011;6609;49.882;8.664;2024-01-06T13:29:14;9.07;;;5.30;;
13085;SDS011;6609;49.882;8.664;2024-01-06T13:31:43;9.57;;;6.27;;
13085;SDS011;6609;49.882;8.664;2024-01-06T13:34:10;8.20;;;5.57;;
13085;SDS011;6609;49.882;8.664;2024-01-06T13:36:37;9.30;;;5.80;;
13085;SDS011;6609;49.882;8.664;2024-01-06T13:39:04;7.73;;;5.40;;
13085;SDS011;6609;49.882;8.664;2024-01-06T13:41:32;11.23;;;5.87;;
13085;SDS011;6609;49.882;8.664;2024-01-06T13:44:00;9.37;;;6.00;;
13085;SDS011;6609;49.882;8.664;2024-01-06T13:46:27;8.53;;;5.77;;
13085;SDS011;6609;49.882;8.664;2024-01-06T13:48:54;10.47;;;6.20;;
13085;SDS011;6609;49.882;8.664;2024-01-06T13:51:22;8.50;;;4.87;;
13085;SDS011;6609;49.882;8.664;2024-01-06T13:53:50;8.13;;;6.13;;
13085;SDS011;6609;49.882;8.664;2024-01-06T13:56:17;8.23;;;5.43;;
13085;SDS011;6609;49.882;8.664;2024-01-06T13:58:44;9.60;;;5.33;;
13085;SDS011;6609;49.882;8.664;2024-01-06T14:01:13;8.10;;;5.47;;
13085;SDS011;6609;49.882;8.664;2024-01-06T14:03:40;9.00;;;5.17;;
13085;SDS011;6609;49.882;8.664;2024-01-06T14:06:07;8.03;;;5.47;;
13085;SDS011;6609;49.882;8.664;2024-01-06T14:08:34;8.53;;;5.67;;
13085;SDS011;6609;49.882;8.664;2024-01-06T14:11:01;8.83;;;5.97;;
13085;SDS011;6609;49.882;8.664;2024-01-06T14:13:30;9.67;;;6.03;;
13085;SDS011;6609;49.882;8.664;2024-01-06T14:15:57;8.10;;;5.30;;
13085;SDS011;6609;49.882;8.664;2024-01-06T14:18:26;9.87;;;5.40;;
13085;SDS011;6609;49.882;8.664;2024-01-06T14:20:53;8.37;;;5.27;;
13085;SDS011;6609;49.882;8.664;2024-01-06T14:23:21;9.00;;;5.87;;
13085;SDS011;6609;49.882;8.664;2024-01-06T14:25:49;8.30;;;5.73;;
13085;SDS011;6609;49.882;8.664;2024-01-06T14:28:16;10.20;;;6.13;;
13085;SDS011;6609;49.882;8.664;2024-01-06T14:30:43;11.00;;;5.33;;
13085;SDS011;6609;49.882;8.664;2024-01-06T14:33:10;9.73;;;5.77;;
13085;SDS011;6609;49.882;8.664;2024-01-06T14:35:38;10.63;;;6.40;;
13085;SDS011;6609;49.882;8.664;2024-01-06T14:38:07;12.10;;;7.00;;
13085;SDS011;6609;49.882;8.664;2024-01-06T14:40:34;9.77;;;6.43;;
13085;SDS011;6609;49.882;8.664;2024-01-06T14:43:02;10.33;;;6.20;;
13085;SDS011;6609;49.882;8.664;2024-01-06T14:45:29;12.37;;;6.80;;
13085;SDS011;6609;49.882;8.664;2024-01-06T14:47:56;10.40;;;6.37;;
13085;SDS011;6609;49.882;8.664;2024-01-06T14:50:24;10.03;;;6.00;;
13085;SDS011;6609;49.882;8.664;2024-01-06T14:52:53;9.70;;;6.43;;
13085;SDS011;6609;49.882;8.664;2024-01-06T14:55:20;10.43;;;6.80;;
13085;SDS011;6609;49.882;8.664;2024-01-06T14:57:47;13.07;;;7.20;;
13085;SDS011;6609;49.882;8.664;2024-01-06T15:00:16;9.83;;;6.50;;
13085;SDS011;6609;49.882;8.664;2024-01-06T15:02:43;7.57;;;6.20;;